Impacts TAF Board INFO
FOR SITUATIONAL AWARENESS. NOT TO BE USED FOR FLIGHT PLANNING PURPOSES.
IDs:

KMEM - Memphis Intl, TN, US

Issued at 1227 UTC 23 Jun 2018
Updated at 1341 UTC 23 Jun 2018
Potential Impact None Slight Moderate High
Time<<24/02Z 24/03Z 24/04Z 24/05Z 24/06Z 24/07Z 24/08Z 24/09Z 24/10Z 24/11Z 24/12Z 24/13Z 24/14Z>>
Type PRVL PRVL PRVL PRVL PRVL PRVL PRVL PRVL PRVL PRVL PRVL PRVL PRVL
VIS >6 >6 >6 >6 >6 >6 >6 >6 >6 >6 >6 >6 >6
CIG 150 150 150 150 150 30 30 30 30 30 30 30 60
Cover BKN BKN BKN BKN BKN OVC OVC OVC OVC OVC OVC OVC BKN
FltCat VFR VFR VFR VFR VFR MVFR MVFR MVFR MVFR MVFR MVFR MVFR VFR
WX -- -- -- -- -- VCTS VCTS VCTS VCTS VCTS VCTS VCTS --
WDir 190 190 190 190 190 210 210 210 210 210 210 210 210
WSpd 7 7 7 7 7 10 10 10 10 10 10 10 10
WGst -- -- -- -- -- -- -- -- -- -- -- -- --

Raw TAF
KMEM 231227Z 2312/2418 22005KT P6SM BKN015 BKN040 OVC250
  FM231300 22006KT P6SM VCTS BKN010CB OVC040
  TEMPO 2313/2315 VRB10G40KT 2SM TSRA OVC005CB
  FM231500 27007KT P6SM VCTS SCT010 BKN035CB OVC060
  FM231900 24010G15KT P6SM VCTS SCT040CB BKN060 BKN250
  FM240100 19007KT P6SM SCT060 BKN150
  FM240700 21010KT P6SM VCTS BKN030CB BKN150 OVC250
  FM241400 21010KT P6SM SCT040 BKN060 BKN250


METAR Board
Radar Display
Forecast Discussion

FOR SITUATIONAL AWARENESS. NOT TO BE USED FOR FLIGHT PLANNING PURPOSES.